sensor_id;sensor_type;location;lat;lon;timestamp;P1;durP1;ratioP1;P2;durP2;ratioP2
62711;SDS011;48772;55.586;37.730;2022-07-22T00:02:18;4.63;;;2.00;;
62711;SDS011;48772;55.586;37.730;2022-07-22T00:04:43;2.28;;;2.08;;
62711;SDS011;48772;55.586;37.730;2022-07-22T00:07:09;4.13;;;2.17;;
62711;SDS011;48772;55.586;37.730;2022-07-22T00:09:35;2.30;;;2.10;;
62711;SDS011;48772;55.586;37.730;2022-07-22T00:12:01;2.10;;;1.90;;
62711;SDS011;48772;55.586;37.730;2022-07-22T00:14:27;3.28;;;2.15;;
62711;SDS011;48772;55.586;37.730;2022-07-22T00:16:53;5.93;;;2.30;;
62711;SDS011;48772;55.586;37.730;2022-07-22T00:19:19;4.18;;;2.10;;
62711;SDS011;48772;55.586;37.730;2022-07-22T00:21:45;5.00;;;2.28;;
62711;SDS011;48772;55.586;37.730;2022-07-22T00:24:11;2.40;;;2.05;;
62711;SDS011;48772;55.586;37.730;2022-07-22T00:26:37;7.68;;;2.42;;
62711;SDS011;48772;55.586;37.730;2022-07-22T00:29:02;2.67;;;2.03;;
62711;SDS011;48772;55.586;37.730;2022-07-22T00:31:28;3.00;;;2.30;;
62711;SDS011;48772;55.586;37.730;2022-07-22T00:33:56;2.50;;;2.30;;
62711;SDS011;48772;55.586;37.730;2022-07-22T00:36:22;4.97;;;2.10;;
62711;SDS011;48772;55.586;37.730;2022-07-22T00:38:47;3.15;;;1.90;;
62711;SDS011;48772;55.586;37.730;2022-07-22T00:41:13;4.57;;;2.05;;
62711;SDS011;48772;55.586;37.730;2022-07-22T00:43:57;2.22;;;2.00;;
62711;SDS011;48772;55.586;37.730;2022-07-22T00:46:25;3.08;;;2.10;;
62711;SDS011;48772;55.586;37.730;2022-07-22T00:48:52;3.08;;;2.17;;
62711;SDS011;48772;55.586;37.730;2022-07-22T00:51:18;4.65;;;2.13;;
62711;SDS011;48772;55.586;37.730;2022-07-22T00:53:45;3.92;;;2.30;;
62711;SDS011;48772;55.586;37.730;2022-07-22T00:56:13;3.05;;;2.08;;
62711;SDS011;48772;55.586;37.730;2022-07-22T00:58:40;3.20;;;2.30;;
62711;SDS011;48772;55.586;37.730;2022-07-22T01:01:06;2.38;;;2.05;;
62711;SDS011;48772;55.586;37.730;2022-07-22T01:03:32;5.85;;;2.10;;
62711;SDS011;48772;55.586;37.730;2022-07-22T01:05:58;4.13;;;2.17;;
62711;SDS011;48772;55.586;37.730;2022-07-22T01:08:24;4.10;;;2.30;;
62711;SDS011;48772;55.586;37.730;2022-07-22T01:10:50;4.35;;;2.20;;
62711;SDS011;48772;55.586;37.730;2022-07-22T01:13:16;3.28;;;2.00;;
62711;SDS011;48772;55.586;37.730;2022-07-22T01:15:42;2.80;;;2.00;;
62711;SDS011;48772;55.586;37.730;2022-07-22T01:18:07;6.80;;;2.20;;
62711;SDS011;48772;55.586;37.730;2022-07-22T01:20:34;2.85;;;1.88;;
62711;SDS011;48772;55.586;37.730;2022-07-22T01:23:01;2.63;;;1.85;;
62711;SDS011;48772;55.586;37.730;2022-07-22T01:25:27;5.78;;;2.10;;
62711;SDS011;48772;55.586;37.730;2022-07-22T01:27:53;3.88;;;2.20;;
62711;SDS011;48772;55.586;37.730;2022-07-22T01:30:20;2.45;;;2.03;;
62711;SDS011;48772;55.586;37.730;2022-07-22T01:32:47;3.78;;;2.20;;
62711;SDS011;48772;55.586;37.730;2022-07-22T01:35:13;2.72;;;2.20;;
62711;SDS011;48772;55.586;37.730;2022-07-22T01:37:39;3.60;;;2.35;;
62711;SDS011;48772;55.586;37.730;2022-07-22T01:40:05;7.55;;;2.17;;
62711;SDS011;48772;55.586;37.730;2022-07-22T01:42:32;1.83;;;1.73;;
62711;SDS011;48772;55.586;37.730;2022-07-22T01:44:58;3.20;;;2.25;;
62711;SDS011;48772;55.586;37.730;2022-07-22T01:47:24;2.95;;;2.15;;
62711;SDS011;48772;55.586;37.730;2022-07-22T01:49:49;2.15;;;1.95;;
62711;SDS011;48772;55.586;37.730;2022-07-22T01:52:15;5.70;;;1.90;;
62711;SDS011;48772;55.586;37.730;2022-07-22T01:54:42;3.10;;;1.75;;
62711;SDS011;48772;55.586;37.730;2022-07-22T01:57:09;4.68;;;2.33;;
62711;SDS011;48772;55.586;37.730;2022-07-22T01:59:42;2.28;;;1.92;;
62711;SDS011;48772;55.586;37.730;2022-07-22T02:02:08;5.05;;;2.03;;
62711;SDS011;48772;55.586;37.730;2022-07-22T02:04:34;2.22;;;2.05;;
62711;SDS011;48772;55.586;37.730;2022-07-22T02:06:59;3.92;;;2.05;;
62711;SDS011;48772;55.586;37.730;2022-07-22T02:09:25;3.13;;;2.10;;
62711;SDS011;48772;55.586;37.730;2022-07-22T02:11:53;4.03;;;2.22;;
62711;SDS011;48772;55.586;37.730;2022-07-22T02:14:19;2.40;;;1.92;;
62711;SDS011;48772;55.586;37.730;2022-07-22T02:16:46;5.18;;;2.20;;
62711;SDS011;48772;55.586;37.730;2022-07-22T02:19:11;4.95;;;2.10;;
62711;SDS011;48772;55.586;37.730;2022-07-22T02:21:38;4.30;;;2.20;;
62711;SDS011;48772;55.586;37.730;2022-07-22T02:24:03;3.22;;;1.70;;
62711;SDS011;48772;55.586;37.730;2022-07-22T02:26:30;5.72;;;2.05;;
62711;SDS011;48772;55.586;37.730;2022-07-22T02:28:56;4.15;;;2.10;;
62711;SDS011;48772;55.586;37.730;2022-07-22T02:31:22;6.07;;;2.00;;
62711;SDS011;48772;55.586;37.730;2022-07-22T02:33:48;2.72;;;2.00;;
62711;SDS011;48772;55.586;37.730;2022-07-22T02:36:13;2.97;;;1.90;;
62711;SDS011;48772;55.586;37.730;2022-07-22T02:38:41;6.75;;;2.25;;
62711;SDS011;48772;55.586;37.730;2022-07-22T02:41:08;3.28;;;1.75;;
62711;SDS011;48772;55.586;37.730;2022-07-22T02:43:37;4.05;;;2.30;;
62711;SDS011;48772;55.586;37.730;2022-07-22T02:46:03;2.97;;;1.92;;
62711;SDS011;48772;55.586;37.730;2022-07-22T02:48:29;3.88;;;1.95;;
62711;SDS011;48772;55.586;37.730;2022-07-22T02:50:55;4.03;;;2.13;;
62711;SDS011;48772;55.586;37.730;2022-07-22T02:53:23;2.10;;;1.90;;
62711;SDS011;48772;55.586;37.730;2022-07-22T02:55:50;3.17;;;1.85;;
62711;SDS011;48772;55.586;37.730;2022-07-22T02:58:16;4.32;;;1.95;;
62711;SDS011;48772;55.586;37.730;2022-07-22T03:00:43;3.35;;;2.00;;
62711;SDS011;48772;55.586;37.730;2022-07-22T03:03:09;4.80;;;2.20;;
62711;SDS011;48772;55.586;37.730;2022-07-22T03:05:35;6.28;;;2.40;;
62711;SDS011;48772;55.586;37.730;2022-07-22T03:08:27;6.97;;;2.13;;
62711;SDS011;48772;55.586;37.730;2022-07-22T03:10:53;2.47;;;2.13;;
62711;SDS011;48772;55.586;37.730;2022-07-22T03:13:20;4.05;;;2.10;;
62711;SDS011;48772;55.586;37.730;2022-07-22T03:15:46;8.55;;;2.50;;
62711;SDS011;48772;55.586;37.730;2022-07-22T03:18:11;2.78;;;2.13;;
62711;SDS011;48772;55.586;37.730;2022-07-22T03:20:37;4.55;;;2.00;;
62711;SDS011;48772;55.586;37.730;2022-07-22T03:23:03;3.65;;;1.90;;
62711;SDS011;48772;55.586;37.730;2022-07-22T03:25:29;3.70;;;2.10;;
62711;SDS011;48772;55.586;37.730;2022-07-22T03:27:56;7.28;;;2.40;;
62711;SDS011;48772;55.586;37.730;2022-07-22T03:30:22;2.25;;;1.98;;
62711;SDS011;48772;55.586;37.730;2022-07-22T03:32:48;3.25;;;2.10;;
62711;SDS011;48772;55.586;37.730;2022-07-22T03:35:15;7.65;;;2.00;;
62711;SDS011;48772;55.586;37.730;2022-07-22T03:37:44;3.30;;;1.95;;
62711;SDS011;48772;55.586;37.730;2022-07-22T03:40:10;5.00;;;2.00;;
62711;SDS011;48772;55.586;37.730;2022-07-22T03:42:38;11.98;;;2.30;;
62711;SDS011;48772;55.586;37.730;2022-07-22T03:45:04;2.88;;;1.77;;
62711;SDS011;48772;55.586;37.730;2022-07-22T03:47:34;3.85;;;2.00;;
62711;SDS011;48772;55.586;37.730;2022-07-22T03:50:00;5.90;;;2.20;;
62711;SDS011;48772;55.586;37.730;2022-07-22T03:52:29;4.45;;;2.13;;
62711;SDS011;48772;55.586;37.730;2022-07-22T03:54:57;7.43;;;2.17;;
62711;SDS011;48772;55.586;37.730;2022-07-22T03:57:23;3.03;;;2.00;;
62711;SDS011;48772;55.586;37.730;2022-07-22T03:59:58;4.68;;;1.75;;
62711;SDS011;48772;55.586;37.730;2022-07-22T04:02:24;7.65;;;2.03;;
62711;SDS011;48772;55.586;37.730;2022-07-22T04:04:50;3.13;;;2.22;;
62711;SDS011;48772;55.586;37.730;2022-07-22T04:07:17;2.20;;;1.95;;
62711;SDS011;48772;55.586;37.730;2022-07-22T04:09:46;2.20;;;2.00;;
62711;SDS011;48772;55.586;37.730;2022-07-22T04:12:13;5.10;;;2.53;;
62711;SDS011;48772;55.586;37.730;2022-07-22T04:14:58;4.68;;;2.20;;
62711;SDS011;48772;55.586;37.730;2022-07-22T04:17:24;3.88;;;2.40;;
62711;SDS011;48772;55.586;37.730;2022-07-22T04:19:50;3.88;;;2.22;;
62711;SDS011;48772;55.586;37.730;2022-07-22T04:22:23;6.50;;;2.10;;
62711;SDS011;48772;55.586;37.730;2022-07-22T04:24:49;3.45;;;2.00;;
62711;SDS011;48772;55.586;37.730;2022-07-22T04:27:14;3.35;;;1.92;;
62711;SDS011;48772;55.586;37.730;2022-07-22T04:29:40;6.93;;;2.08;;
62711;SDS011;48772;55.586;37.730;2022-07-22T04:32:06;4.65;;;2.33;;
62711;SDS011;48772;55.586;37.730;2022-07-22T04:34:33;3.72;;;1.92;;
62711;SDS011;48772;55.586;37.730;2022-07-22T04:36:59;4.00;;;2.10;;
62711;SDS011;48772;55.586;37.730;2022-07-22T04:39:28;4.20;;;2.13;;
62711;SDS011;48772;55.586;37.730;2022-07-22T04:41:56;3.75;;;2.00;;
62711;SDS011;48772;55.586;37.730;2022-07-22T04:44:23;6.00;;;2.17;;
62711;SDS011;48772;55.586;37.730;2022-07-22T04:46:48;4.60;;;1.90;;
62711;SDS011;48772;55.586;37.730;2022-07-22T04:49:14;4.82;;;1.83;;
62711;SDS011;48772;55.586;37.730;2022-07-22T04:51:40;6.47;;;2.10;;
62711;SDS011;48772;55.586;37.730;2022-07-22T04:54:09;4.47;;;1.90;;
62711;SDS011;48772;55.586;37.730;2022-07-22T04:56:39;4.18;;;2.00;;
62711;SDS011;48772;55.586;37.730;2022-07-22T04:59:05;3.58;;;1.77;;
62711;SDS011;48772;55.586;37.730;2022-07-22T05:01:31;4.00;;;1.80;;
62711;SDS011;48772;55.586;37.730;2022-07-22T05:03:59;7.90;;;1.80;;
62711;SDS011;48772;55.586;37.730;2022-07-22T05:06:25;11.18;;;2.05;;
62711;SDS011;48772;55.586;37.730;2022-07-22T05:08:51;2.63;;;1.52;;
62711;SDS011;48772;55.586;37.730;2022-07-22T05:11:18;8.48;;;1.70;;
62711;SDS011;48772;55.586;37.730;2022-07-22T05:13:45;4.95;;;2.00;;
62711;SDS011;48772;55.586;37.730;2022-07-22T05:16:12;4.35;;;1.80;;
62711;SDS011;48772;55.586;37.730;2022-07-22T05:18:38;5.22;;;2.05;;
62711;SDS011;48772;55.586;37.730;2022-07-22T05:21:06;3.92;;;1.50;;
62711;SDS011;48772;55.586;37.730;2022-07-22T05:23:33;3.75;;;1.90;;
62711;SDS011;48772;55.586;37.730;2022-07-22T05:25:59;5.80;;;1.90;;
62711;SDS011;48772;55.586;37.730;2022-07-22T05:28:25;9.70;;;1.80;;
62711;SDS011;48772;55.586;37.730;2022-07-22T05:30:51;5.22;;;2.00;;
62711;SDS011;48772;55.586;37.730;2022-07-22T05:33:18;6.40;;;1.80;;
62711;SDS011;48772;55.586;37.730;2022-07-22T05:35:55;9.10;;;2.00;;
62711;SDS011;48772;55.586;37.730;2022-07-22T05:38:23;5.88;;;1.88;;
62711;SDS011;48772;55.586;37.730;2022-07-22T05:40:49;3.80;;;1.77;;
62711;SDS011;48772;55.586;37.730;2022-07-22T05:43:14;8.45;;;1.80;;
62711;SDS011;48772;55.586;37.730;2022-07-22T05:45:40;1.63;;;1.52;;
62711;SDS011;48772;55.586;37.730;2022-07-22T05:48:06;7.10;;;1.85;;
62711;SDS011;48772;55.586;37.730;2022-07-22T05:50:33;2.60;;;1.80;;
62711;SDS011;48772;55.586;37.730;2022-07-22T05:52:59;6.85;;;2.10;;
62711;SDS011;48772;55.586;37.730;2022-07-22T05:55:24;3.78;;;1.77;;
62711;SDS011;48772;55.586;37.730;2022-07-22T05:57:52;3.63;;;2.00;;
62711;SDS011;48772;55.586;37.730;2022-07-22T06:00:18;7.60;;;1.77;;
62711;SDS011;48772;55.586;37.730;2022-07-22T06:02:44;5.63;;;2.20;;
62711;SDS011;48772;55.586;37.730;2022-07-22T06:05:15;5.07;;;1.98;;
62711;SDS011;48772;55.586;37.730;2022-07-22T06:07:42;5.40;;;1.92;;
62711;SDS011;48772;55.586;37.730;2022-07-22T06:10:10;3.17;;;1.90;;
62711;SDS011;48772;55.586;37.730;2022-07-22T06:12:37;5.80;;;1.90;;
62711;SDS011;48772;55.586;37.730;2022-07-22T06:15:03;6.53;;;1.98;;
62711;SDS011;48772;55.586;37.730;2022-07-22T06:17:30;3.63;;;1.85;;
62711;SDS011;48772;55.586;37.730;2022-07-22T06:19:56;4.40;;;1.92;;
62711;SDS011;48772;55.586;37.730;2022-07-22T06:22:22;4.80;;;1.70;;
62711;SDS011;48772;55.586;37.730;2022-07-22T06:24:48;3.58;;;1.65;;
62711;SDS011;48772;55.586;37.730;2022-07-22T06:27:15;3.20;;;1.90;;
62711;SDS011;48772;55.586;37.730;2022-07-22T06:29:41;3.88;;;2.22;;
62711;SDS011;48772;55.586;37.730;2022-07-22T06:32:07;6.85;;;3.72;;
62711;SDS011;48772;55.586;37.730;2022-07-22T06:34:33;25.80;;;15.27;;
62711;SDS011;48772;55.586;37.730;2022-07-22T06:37:03;24.58;;;12.18;;
62711;SDS011;48772;55.586;37.730;2022-07-22T06:39:28;18.50;;;11.88;;
62711;SDS011;48772;55.586;37.730;2022-07-22T06:42:26;12.00;;;5.40;;
62711;SDS011;48772;55.586;37.730;2022-07-22T06:44:52;14.60;;;7.03;;
62711;SDS011;48772;55.586;37.730;2022-07-22T06:47:38;11.00;;;3.95;;
62711;SDS011;48772;55.586;37.730;2022-07-22T06:50:06;6.70;;;2.35;;
62711;SDS011;48772;55.586;37.730;2022-07-22T06:52:33;2.72;;;1.75;;
62711;SDS011;48772;55.586;37.730;2022-07-22T06:54:59;3.45;;;1.67;;
62711;SDS011;48772;55.586;37.730;2022-07-22T06:57:31;5.03;;;1.85;;
62711;SDS011;48772;55.586;37.730;2022-07-22T06:59:57;7.05;;;2.25;;
62711;SDS011;48772;55.586;37.730;2022-07-22T07:02:24;2.17;;;1.63;;
62711;SDS011;48772;55.586;37.730;2022-07-22T07:04:50;4.10;;;1.85;;
62711;SDS011;48772;55.586;37.730;2022-07-22T07:07:17;3.22;;;1.60;;
62711;SDS011;48772;55.586;37.730;2022-07-22T07:10:01;2.63;;;1.80;;
62711;SDS011;48772;55.586;37.730;2022-07-22T07:12:46;4.90;;;2.00;;
62711;SDS011;48772;55.586;37.730;2022-07-22T07:15:19;5.20;;;1.50;;
62711;SDS011;48772;55.586;37.730;2022-07-22T07:17:46;3.13;;;1.63;;
62711;SDS011;48772;55.586;37.730;2022-07-22T07:20:14;1.50;;;1.40;;
62711;SDS011;48772;55.586;37.730;2022-07-22T07:22:41;2.85;;;1.67;;
62711;SDS011;48772;55.586;37.730;2022-07-22T07:25:07;8.65;;;1.50;;
62711;SDS011;48772;55.586;37.730;2022-07-22T07:27:34;5.15;;;2.03;;
62711;SDS011;48772;55.586;37.730;2022-07-22T07:30:03;3.10;;;1.70;;
62711;SDS011;48772;55.586;37.730;2022-07-22T07:32:30;5.47;;;2.03;;
62711;SDS011;48772;55.586;37.730;2022-07-22T07:34:56;10.40;;;1.95;;
62711;SDS011;48772;55.586;37.730;2022-07-22T07:37:22;3.10;;;1.70;;
62711;SDS011;48772;55.586;37.730;2022-07-22T07:39:48;7.15;;;2.10;;
62711;SDS011;48772;55.586;37.730;2022-07-22T07:42:14;5.18;;;1.83;;
62711;SDS011;48772;55.586;37.730;2022-07-22T07:44:40;6.05;;;2.03;;
62711;SDS011;48772;55.586;37.730;2022-07-22T07:47:06;4.03;;;1.63;;
62711;SDS011;48772;55.586;37.730;2022-07-22T07:49:32;3.60;;;1.77;;
62711;SDS011;48772;55.586;37.730;2022-07-22T07:51:58;6.10;;;2.00;;
62711;SDS011;48772;55.586;37.730;2022-07-22T07:54:24;6.03;;;1.80;;
62711;SDS011;48772;55.586;37.730;2022-07-22T07:56:52;5.65;;;1.67;;
62711;SDS011;48772;55.586;37.730;2022-07-22T07:59:18;1.80;;;1.70;;
62711;SDS011;48772;55.586;37.730;2022-07-22T08:01:45;2.33;;;1.60;;
62711;SDS011;48772;55.586;37.730;2022-07-22T08:04:11;6.07;;;1.60;;
62711;SDS011;48772;55.586;37.730;2022-07-22T08:06:36;5.13;;;1.75;;
62711;SDS011;48772;55.586;37.730;2022-07-22T08:09:02;10.43;;;1.80;;
62711;SDS011;48772;55.586;37.730;2022-07-22T08:11:34;5.63;;;1.50;;
62711;SDS011;48772;55.586;37.730;2022-07-22T08:14:25;3.20;;;1.63;;
62711;SDS011;48772;55.586;37.730;2022-07-22T08:17:24;3.90;;;1.70;;
62711;SDS011;48772;55.586;37.730;2022-07-22T08:19:50;3.75;;;1.67;;
62711;SDS011;48772;55.586;37.730;2022-07-22T08:22:16;4.57;;;2.08;;
62711;SDS011;48772;55.586;37.730;2022-07-22T08:24:44;1.95;;;1.65;;
62711;SDS011;48772;55.586;37.730;2022-07-22T08:27:14;10.48;;;1.73;;
62711;SDS011;48772;55.586;37.730;2022-07-22T08:29:40;3.00;;;1.73;;
62711;SDS011;48772;55.586;37.730;2022-07-22T08:32:06;6.70;;;1.50;;
62711;SDS011;48772;55.586;37.730;2022-07-22T08:34:32;4.95;;;1.58;;
62711;SDS011;48772;55.586;37.730;2022-07-22T08:36:58;3.67;;;1.70;;
62711;SDS011;48772;55.586;37.730;2022-07-22T08:39:24;7.13;;;2.05;;
62711;SDS011;48772;55.586;37.730;2022-07-22T08:41:51;9.45;;;1.80;;
62711;SDS011;48772;55.586;37.730;2022-07-22T08:44:23;4.32;;;1.70;;
62711;SDS011;48772;55.586;37.730;2022-07-22T08:46:49;6.10;;;1.90;;
62711;SDS011;48772;55.586;37.730;2022-07-22T08:49:18;2.95;;;1.90;;
62711;SDS011;48772;55.586;37.730;2022-07-22T08:52:10;7.90;;;1.90;;
62711;SDS011;48772;55.586;37.730;2022-07-22T08:54:39;3.13;;;1.60;;
62711;SDS011;48772;55.586;37.730;2022-07-22T08:57:05;3.55;;;1.85;;
62711;SDS011;48772;55.586;37.730;2022-07-22T08:59:32;10.60;;;1.80;;
62711;SDS011;48772;55.586;37.730;2022-07-22T09:04:52;4.97;;;1.70;;
62711;SDS011;48772;55.586;37.730;2022-07-22T09:09:53;3.28;;;2.60;;
62711;SDS011;48772;55.586;37.730;2022-07-22T09:15:50;4.43;;;1.70;;
62711;SDS011;48772;55.586;37.730;2022-07-22T09:18:48;3.78;;;1.80;;
62711;SDS011;48772;55.586;37.730;2022-07-22T09:21:34;8.80;;;1.85;;
62711;SDS011;48772;55.586;37.730;2022-07-22T09:24:08;7.20;;;2.00;;
62711;SDS011;48772;55.586;37.730;2022-07-22T09:26:53;3.20;;;1.90;;
62711;SDS011;48772;55.586;37.730;2022-07-22T09:29:27;4.47;;;2.22;;
62711;SDS011;48772;55.586;37.730;2022-07-22T09:32:13;8.52;;;1.88;;
62711;SDS011;48772;55.586;37.730;2022-07-22T09:34:51;8.65;;;2.53;;
62711;SDS011;48772;55.586;37.730;2022-07-22T09:37:30;5.70;;;2.22;;
62711;SDS011;48772;55.586;37.730;2022-07-22T09:40:11;12.40;;;2.72;;
62711;SDS011;48772;55.586;37.730;2022-07-22T09:42:49;4.72;;;3.20;;
62711;SDS011;48772;55.586;37.730;2022-07-22T09:45:26;10.75;;;3.80;;
62711;SDS011;48772;55.586;37.730;2022-07-22T09:47:55;7.28;;;2.80;;
62711;SDS011;48772;55.586;37.730;2022-07-22T09:50:46;8.75;;;2.67;;
62711;SDS011;48772;55.586;37.730;2022-07-22T09:53:39;2.72;;;1.90;;
62711;SDS011;48772;55.586;37.730;2022-07-22T09:56:08;5.35;;;1.63;;
62711;SDS011;48772;55.586;37.730;2022-07-22T09:58:35;2.30;;;1.50;;
62711;SDS011;48772;55.586;37.730;2022-07-22T10:01:06;7.65;;;2.10;;
62711;SDS011;48772;55.586;37.730;2022-07-22T10:03:34;3.25;;;2.13;;
62711;SDS011;48772;55.586;37.730;2022-07-22T10:06:03;3.70;;;1.88;;
62711;SDS011;48772;55.586;37.730;2022-07-22T10:08:32;3.20;;;2.15;;
62711;SDS011;48772;55.586;37.730;2022-07-22T10:10:59;5.57;;;1.80;;
62711;SDS011;48772;55.586;37.730;2022-07-22T10:13:27;3.40;;;2.10;;
62711;SDS011;48772;55.586;37.730;2022-07-22T10:15:54;4.88;;;1.92;;
62711;SDS011;48772;55.586;37.730;2022-07-22T10:18:22;7.25;;;2.15;;
62711;SDS011;48772;55.586;37.730;2022-07-22T10:21:02;2.33;;;1.60;;
62711;SDS011;48772;55.586;37.730;2022-07-22T10:23:31;3.33;;;1.50;;
62711;SDS011;48772;55.586;37.730;2022-07-22T10:26:01;7.18;;;1.60;;
62711;SDS011;48772;55.586;37.730;2022-07-22T10:28:34;3.33;;;1.42;;
62711;SDS011;48772;55.586;37.730;2022-07-22T10:31:34;8.43;;;1.40;;
62711;SDS011;48772;55.586;37.730;2022-07-22T10:33:54;9.07;;;1.70;;
62711;SDS011;48772;55.586;37.730;2022-07-22T10:36:38;4.45;;;1.80;;
62711;SDS011;48772;55.586;37.730;2022-07-22T10:41:40;2.78;;;1.40;;
62711;SDS011;48772;55.586;37.730;2022-07-22T10:44:08;4.55;;;1.48;;
62711;SDS011;48772;55.586;37.730;2022-07-22T10:46:47;2.50;;;1.50;;
62711;SDS011;48772;55.586;37.730;2022-07-22T10:49:24;6.53;;;1.88;;
62711;SDS011;48772;55.586;37.730;2022-07-22T10:52:08;3.65;;;1.70;;
62711;SDS011;48772;55.586;37.730;2022-07-22T10:57:39;7.05;;;1.90;;
62711;SDS011;48772;55.586;37.730;2022-07-22T11:00:05;5.68;;;1.60;;
62711;SDS011;48772;55.586;37.730;2022-07-22T11:02:31;3.97;;;1.80;;
62711;SDS011;48772;55.586;37.730;2022-07-22T11:04:59;3.72;;;1.77;;
62711;SDS011;48772;55.586;37.730;2022-07-22T11:07:26;6.45;;;1.70;;
62711;SDS011;48772;55.586;37.730;2022-07-22T11:09:53;9.85;;;1.92;;
62711;SDS011;48772;55.586;37.730;2022-07-22T11:12:19;3.13;;;1.90;;
62711;SDS011;48772;55.586;37.730;2022-07-22T11:14:44;7.05;;;2.15;;
62711;SDS011;48772;55.586;37.730;2022-07-22T11:17:11;8.32;;;2.20;;
62711;SDS011;48772;55.586;37.730;2022-07-22T11:19:41;4.70;;;2.22;;
62711;SDS011;48772;55.586;37.730;2022-07-22T11:22:08;6.10;;;1.88;;
62711;SDS011;48772;55.586;37.730;2022-07-22T11:24:36;10.25;;;2.00;;
62711;SDS011;48772;55.586;37.730;2022-07-22T11:27:04;7.95;;;1.60;;
62711;SDS011;48772;55.586;37.730;2022-07-22T11:29:40;3.08;;;1.40;;
62711;SDS011;48772;55.586;37.730;2022-07-22T11:32:10;4.78;;;1.90;;
62711;SDS011;48772;55.586;37.730;2022-07-22T11:34:39;6.03;;;1.80;;
62711;SDS011;48772;55.586;37.730;2022-07-22T11:37:15;6.93;;;1.67;;
62711;SDS011;48772;55.586;37.730;2022-07-22T11:39:43;3.65;;;1.80;;
62711;SDS011;48772;55.586;37.730;2022-07-22T11:42:10;1.98;;;1.70;;
62711;SDS011;48772;55.586;37.730;2022-07-22T11:44:38;6.25;;;1.80;;
62711;SDS011;48772;55.586;37.730;2022-07-22T11:47:04;3.88;;;2.10;;
62711;SDS011;48772;55.586;37.730;2022-07-22T11:49:33;5.00;;;2.20;;
62711;SDS011;48772;55.586;37.730;2022-07-22T11:52:07;4.60;;;2.10;;
62711;SDS011;48772;55.586;37.730;2022-07-22T11:54:37;9.02;;;2.33;;
62711;SDS011;48772;55.586;37.730;2022-07-22T11:57:05;2.67;;;1.90;;
62711;SDS011;48772;55.586;37.730;2022-07-22T11:59:32;4.07;;;2.05;;
62711;SDS011;48772;55.586;37.730;2022-07-22T12:02:00;2.50;;;1.83;;
62711;SDS011;48772;55.586;37.730;2022-07-22T12:04:28;6.45;;;1.60;;
62711;SDS011;48772;55.586;37.730;2022-07-22T12:06:58;3.35;;;1.40;;
62711;SDS011;48772;55.586;37.730;2022-07-22T12:09:28;3.92;;;1.50;;
62711;SDS011;48772;55.586;37.730;2022-07-22T12:11:58;2.70;;;1.45;;
62711;SDS011;48772;55.586;37.730;2022-07-22T12:14:28;4.93;;;1.50;;
62711;SDS011;48772;55.586;37.730;2022-07-22T12:19:26;1.85;;;1.63;;
62711;SDS011;48772;55.586;37.730;2022-07-22T12:21:56;6.78;;;1.85;;
62711;SDS011;48772;55.586;37.730;2022-07-22T12:24:46;3.15;;;1.63;;
62711;SDS011;48772;55.586;37.730;2022-07-22T12:27:22;2.67;;;1.60;;
62711;SDS011;48772;55.586;37.730;2022-07-22T12:29:48;5.30;;;1.63;;
62711;SDS011;48772;55.586;37.730;2022-07-22T12:34:57;5.18;;;1.88;;
62711;SDS011;48772;55.586;37.730;2022-07-22T12:37:26;5.28;;;1.40;;
62711;SDS011;48772;55.586;37.730;2022-07-22T12:40:16;3.00;;;1.50;;
62711;SDS011;48772;55.586;37.730;2022-07-22T12:42:45;6.47;;;1.83;;
62711;SDS011;48772;55.586;37.730;2022-07-22T12:45:25;3.67;;;1.70;;
62711;SDS011;48772;55.586;37.730;2022-07-22T12:47:56;2.58;;;1.48;;
62711;SDS011;48772;55.586;37.730;2022-07-22T12:50:31;2.03;;;1.75;;
62711;SDS011;48772;55.586;37.730;2022-07-22T12:52:59;4.70;;;2.00;;
62711;SDS011;48772;55.586;37.730;2022-07-22T12:55:34;5.63;;;2.10;;
62711;SDS011;48772;55.586;37.730;2022-07-22T12:58:04;2.15;;;1.60;;
62711;SDS011;48772;55.586;37.730;2022-07-22T13:00:36;3.95;;;2.08;;
62711;SDS011;48772;55.586;37.730;2022-07-22T13:03:06;5.10;;;1.67;;
62711;SDS011;48772;55.586;37.730;2022-07-22T13:05:37;4.97;;;1.77;;
62711;SDS011;48772;55.586;37.730;2022-07-22T13:08:09;5.75;;;1.60;;
62711;SDS011;48772;55.586;37.730;2022-07-22T13:10:37;6.70;;;1.80;;
62711;SDS011;48772;55.586;37.730;2022-07-22T13:13:03;3.28;;;1.40;;
62711;SDS011;48772;55.586;37.730;2022-07-22T13:15:39;2.75;;;1.50;;
62711;SDS011;48772;55.586;37.730;2022-07-22T13:18:12;3.33;;;1.60;;
62711;SDS011;48772;55.586;37.730;2022-07-22T13:20:38;6.93;;;1.70;;
62711;SDS011;48772;55.586;37.730;2022-07-22T13:23:05;5.40;;;1.77;;
62711;SDS011;48772;55.586;37.730;2022-07-22T13:25:35;4.00;;;1.70;;
62711;SDS011;48772;55.586;37.730;2022-07-22T13:28:03;3.28;;;1.63;;
62711;SDS011;48772;55.586;37.730;2022-07-22T13:30:30;5.68;;;1.35;;
62711;SDS011;48772;55.586;37.730;2022-07-22T13:32:56;4.18;;;1.55;;
62711;SDS011;48772;55.586;37.730;2022-07-22T13:35:22;1.90;;;1.40;;
62711;SDS011;48772;55.586;37.730;2022-07-22T13:37:48;4.25;;;1.60;;
62711;SDS011;48772;55.586;37.730;2022-07-22T13:40:15;2.05;;;1.70;;
62711;SDS011;48772;55.586;37.730;2022-07-22T13:42:42;3.92;;;1.50;;
62711;SDS011;48772;55.586;37.730;2022-07-22T13:45:10;6.30;;;1.60;;
62711;SDS011;48772;55.586;37.730;2022-07-22T13:47:42;4.20;;;1.83;;
62711;SDS011;48772;55.586;37.730;2022-07-22T13:50:08;3.38;;;1.58;;
62711;SDS011;48772;55.586;37.730;2022-07-22T13:52:38;2.15;;;1.60;;
62711;SDS011;48772;55.586;37.730;2022-07-22T13:55:04;3.78;;;1.70;;
62711;SDS011;48772;55.586;37.730;2022-07-22T13:57:31;3.72;;;1.70;;
62711;SDS011;48772;55.586;37.730;2022-07-22T13:59:58;2.60;;;1.50;;
62711;SDS011;48772;55.586;37.730;2022-07-22T14:02:34;5.00;;;1.65;;
62711;SDS011;48772;55.586;37.730;2022-07-22T14:05:00;5.45;;;1.98;;
62711;SDS011;48772;55.586;37.730;2022-07-22T14:07:26;3.78;;;1.65;;
62711;SDS011;48772;55.586;37.730;2022-07-22T14:09:51;8.55;;;1.90;;
62711;SDS011;48772;55.586;37.730;2022-07-22T14:12:17;3.33;;;1.90;;
62711;SDS011;48772;55.586;37.730;2022-07-22T14:14:43;4.13;;;1.65;;
62711;SDS011;48772;55.586;37.730;2022-07-22T14:17:09;4.50;;;1.55;;
62711;SDS011;48772;55.586;37.730;2022-07-22T14:19:34;2.08;;;1.65;;
62711;SDS011;48772;55.586;37.730;2022-07-22T14:22:00;3.92;;;1.52;;
62711;SDS011;48772;55.586;37.730;2022-07-22T14:24:26;2.78;;;1.20;;
62711;SDS011;48772;55.586;37.730;2022-07-22T14:26:52;5.78;;;1.70;;
62711;SDS011;48772;55.586;37.730;2022-07-22T14:29:19;2.45;;;1.38;;
62711;SDS011;48772;55.586;37.730;2022-07-22T14:31:46;3.40;;;1.60;;
62711;SDS011;48772;55.586;37.730;2022-07-22T14:34:12;3.38;;;1.50;;
62711;SDS011;48772;55.586;37.730;2022-07-22T14:36:38;3.95;;;1.83;;
62711;SDS011;48772;55.586;37.730;2022-07-22T14:39:04;4.80;;;1.98;;
62711;SDS011;48772;55.586;37.730;2022-07-22T14:41:30;3.47;;;1.73;;
62711;SDS011;48772;55.586;37.730;2022-07-22T14:43:56;2.42;;;1.70;;
62711;SDS011;48772;55.586;37.730;2022-07-22T14:46:22;5.05;;;2.40;;
62711;SDS011;48772;55.586;37.730;2022-07-22T14:48:51;3.78;;;1.50;;
62711;SDS011;48772;55.586;37.730;2022-07-22T14:51:21;2.75;;;1.70;;
62711;SDS011;48772;55.586;37.730;2022-07-22T14:53:50;1.90;;;1.70;;
62711;SDS011;48772;55.586;37.730;2022-07-22T14:56:16;5.82;;;1.90;;
62711;SDS011;48772;55.586;37.730;2022-07-22T14:58:42;2.63;;;2.05;;
62711;SDS011;48772;55.586;37.730;2022-07-22T15:01:08;2.53;;;1.83;;
62711;SDS011;48772;55.586;37.730;2022-07-22T15:03:34;4.13;;;2.10;;